Time;durP1;ratioP1;P1;durP2;ratioP2;P2;SDS_P1;SDS_P2;PMS_P1;PMS_P2;Temp;Humidity;BMP_temperature;BMP_pressure;BME280_temperature;BME280_humidity;BME280_pressure;Samples;Min_cycle;Max_cycle;Signal;HPM_P1;HPM_P2
2021/10/23 00:01:05;;;;;;;6.57;2.35;;;7.20;99.90;;;;;;5007931;28;21683;-70
2021/10/23 00:03:34;;;;;;;7.22;1.90;;;7.10;99.90;;;;;;5005715;28;20224;-70
2021/10/23 00:06:01;;;;;;;6.43;1.85;;;7.10;99.90;;;;;;5008271;28;20210;-73
2021/10/23 00:08:28;;;;;;;4.38;2.33;;;7.10;99.90;;;;;;5010029;28;20299;-72
2021/10/23 00:11:05;;;;;;;6.78;2.78;;;7.10;99.90;;;;;;5016213;28;20204;-71
2021/10/23 00:13:33;;;;;;;6.20;2.50;;;7.20;99.90;;;;;;4998921;28;20239;-72
2021/10/23 00:16:12;;;;;;;11.75;2.38;;;7.20;99.90;;;;;;5013336;28;20239;-71
2021/10/23 00:18:39;;;;;;;7.13;2.40;;;7.10;99.90;;;;;;5011068;28;20199;-72
2021/10/23 00:21:14;;;;;;;9.30;2.75;;;7.20;99.90;;;;;;5005264;28;20311;-70
2021/10/23 00:23:41;;;;;;;10.10;2.80;;;7.20;99.90;;;;;;5005996;28;20220;-73
2021/10/23 00:26:09;;;;;;;8.93;2.47;;;7.30;99.90;;;;;;5010250;28;20673;-73
2021/10/23 00:28:37;;;;;;;7.97;2.00;;;7.20;99.90;;;;;;5008928;28;20218;-70
2021/10/23 00:31:23;;;;;;;12.68;2.70;;;7.20;99.90;;;;;;5012331;28;20199;-71
2021/10/23 00:33:50;;;;;;;10.43;1.92;;;7.20;99.90;;;;;;5012830;28;20759;-71
2021/10/23 00:36:30;;;;;;;12.70;1.90;;;7.20;99.90;;;;;;4998359;28;20269;-70
2021/10/23 00:38:57;;;;;;;4.55;2.13;;;7.10;99.90;;;;;;5010433;28;20255;-70
2021/10/23 00:41:28;;;;;;;14.60;1.88;;;7.10;99.90;;;;;;5016793;28;20209;-71
2021/10/23 00:43:55;;;;;;;18.10;2.15;;;7.10;99.90;;;;;;5023538;28;20212;-70
2021/10/23 00:46:23;;;;;;;7.85;1.90;;;7.10;99.90;;;;;;5009707;28;20574;-72
2021/10/23 00:48:50;;;;;;;14.43;2.42;;;7.10;99.90;;;;;;5005752;28;20205;-72
2021/10/23 00:51:18;;;;;;;9.05;2.63;;;7.10;99.90;;;;;;5017931;28;20203;-73
2021/10/23 00:53:46;;;;;;;9.65;3.30;;;7.10;99.90;;;;;;5015563;28;20234;-72
2021/10/23 00:56:17;;;;;;;4.93;2.20;;;7.10;99.90;;;;;;5010192;28;20556;-72
2021/10/23 00:58:47;;;;;;;8.07;2.55;;;7.10;99.90;;;;;;5012365;28;20203;-73
2021/10/23 01:01:14;;;;;;;9.35;2.47;;;7.20;99.90;;;;;;5013843;28;20281;-70
2021/10/23 01:03:41;;;;;;;12.13;2.50;;;7.10;99.90;;;;;;5014847;28;20269;-73
2021/10/23 01:06:08;;;;;;;4.25;1.35;;;7.10;99.90;;;;;;5008198;28;20725;-73
2021/10/23 01:08:38;;;;;;;4.70;1.55;;;7.10;99.90;;;;;;5015213;28;20201;-71
2021/10/23 01:11:05;;;;;;;8.23;2.50;;;7.20;99.90;;;;;;5006511;28;20208;-71
2021/10/23 01:13:32;;;;;;;6.95;2.40;;;7.20;99.90;;;;;;5013114;28;20239;-72
2021/10/23 01:16:01;;;;;;;7.68;2.97;;;7.30;99.90;;;;;;5009555;28;20207;-73
2021/10/23 01:18:28;;;;;;;10.38;2.15;;;7.30;99.90;;;;;;5005416;28;20208;-73
2021/10/23 01:20:56;;;;;;;7.38;3.08;;;7.30;99.90;;;;;;5019568;28;20204;-74
2021/10/23 01:23:23;;;;;;;11.20;2.65;;;7.30;99.90;;;;;;5016418;28;20229;-73
2021/10/23 01:25:51;;;;;;;18.85;2.95;;;7.20;99.90;;;;;;5016491;28;20555;-72
2021/10/23 01:28:19;;;;;;;4.32;1.88;;;7.20;99.90;;;;;;5011151;28;20204;-73
2021/10/23 01:30:46;;;;;;;7.43;2.30;;;7.10;99.90;;;;;;5013548;28;20226;-71
2021/10/23 01:33:13;;;;;;;6.03;2.38;;;7.10;99.90;;;;;;5001257;28;20243;-73
2021/10/23 01:35:40;;;;;;;11.40;3.45;;;7.20;99.90;;;;;;5005747;28;20217;-71
2021/10/23 01:38:10;;;;;;;13.15;2.97;;;7.10;99.90;;;;;;5015166;28;20209;-69
2021/10/23 01:40:37;;;;;;;8.63;2.95;;;7.10;99.90;;;;;;5013427;28;20207;-71
2021/10/23 01:43:06;;;;;;;5.45;1.80;;;7.10;99.90;;;;;;5008587;28;20225;-68
2021/10/23 01:45:34;;;;;;;8.25;2.20;;;7.00;99.90;;;;;;5007437;28;20211;-70
2021/10/23 01:48:13;;;;;;;14.63;2.53;;;7.10;99.90;;;;;;5004082;28;20211;-71
2021/10/23 01:50:40;;;;;;;8.20;2.20;;;7.10;99.90;;;;;;5008501;28;20199;-70
2021/10/23 01:53:11;;;;;;;9.82;2.72;;;7.10;99.90;;;;;;5014645;28;20323;-72
2021/10/23 01:55:38;;;;;;;7.28;2.28;;;7.10;99.90;;;;;;5006033;28;20236;-72
2021/10/23 01:58:06;;;;;;;6.85;1.83;;;7.10;99.90;;;;;;5007825;28;20215;-70
2021/10/23 02:00:34;;;;;;;10.02;1.90;;;7.10;99.90;;;;;;5017016;28;20290;-73
2021/10/23 02:03:01;;;;;;;7.70;1.90;;;7.10;99.90;;;;;;5013344;28;20263;-71
2021/10/23 02:05:28;;;;;;;6.40;2.78;;;7.10;99.90;;;;;;5003102;28;20202;-74
2021/10/23 02:07:55;;;;;;;9.23;2.60;;;7.20;99.90;;;;;;5016251;28;20206;-73
2021/10/23 02:10:24;;;;;;;10.43;2.92;;;7.30;99.90;;;;;;5013279;28;20218;-73
2021/10/23 02:12:51;;;;;;;6.63;2.65;;;7.40;99.90;;;;;;5008960;28;20311;-71
2021/10/23 02:15:19;;;;;;;11.70;2.20;;;7.50;99.90;;;;;;5006238;28;20239;-71
2021/10/23 02:17:46;;;;;;;10.85;2.70;;;7.60;99.90;;;;;;5012163;28;20220;-72
2021/10/23 02:20:13;;;;;;;7.53;2.10;;;7.70;99.90;;;;;;5012824;28;20600;-72
2021/10/23 02:22:41;;;;;;;11.05;3.53;;;7.60;99.90;;;;;;5009537;28;20306;-70
2021/10/23 02:25:10;;;;;;;5.38;1.85;;;7.60;99.90;;;;;;5007955;28;20290;-70
2021/10/23 02:27:39;;;;;;;8.98;2.47;;;7.70;99.90;;;;;;5009561;28;20580;-72
2021/10/23 02:30:08;;;;;;;6.05;2.72;;;7.60;99.90;;;;;;5016817;28;20573;-71
2021/10/23 02:32:35;;;;;;;7.97;2.83;;;7.50;99.90;;;;;;5012657;28;20573;-72
2021/10/23 02:35:03;;;;;;;5.32;2.20;;;7.50;99.90;;;;;;5012531;28;20223;-70
2021/10/23 02:37:31;;;;;;;13.98;2.40;;;7.40;99.90;;;;;;5012304;28;20200;-72
2021/10/23 02:39:58;;;;;;;7.18;2.10;;;7.40;99.90;;;;;;5011205;28;20662;-70
2021/10/23 02:42:25;;;;;;;9.35;2.50;;;7.40;99.90;;;;;;5008878;28;20238;-70
2021/10/23 02:44:54;;;;;;;6.93;1.65;;;7.40;99.90;;;;;;5009745;28;20204;-72
2021/10/23 02:47:21;;;;;;;7.43;1.65;;;7.30;99.90;;;;;;5013960;28;20200;-73
2021/10/23 02:49:48;;;;;;;9.32;1.90;;;7.30;99.90;;;;;;5011450;28;20293;-73
2021/10/23 02:52:16;;;;;;;6.70;1.90;;;7.30;99.90;;;;;;5012936;28;20325;-72
2021/10/23 02:54:43;;;;;;;9.88;2.30;;;7.20;99.90;;;;;;5010192;28;20222;-71
2021/10/23 02:57:10;;;;;;;4.60;2.45;;;7.20;99.90;;;;;;5005763;28;20207;-75
2021/10/23 02:59:39;;;;;;;8.40;2.22;;;7.10;99.90;;;;;;5009100;28;20691;-71
2021/10/23 03:02:08;;;;;;;13.30;3.20;;;7.10;99.90;;;;;;5003717;28;20238;-71
2021/10/23 03:04:35;;;;;;;8.38;2.58;;;7.00;99.90;;;;;;5011137;28;20561;-73
2021/10/23 03:07:02;;;;;;;7.30;3.13;;;7.00;99.90;;;;;;5014789;28;20210;-73
2021/10/23 03:09:29;;;;;;;7.35;3.03;;;6.90;99.90;;;;;;5013019;28;20200;-71
2021/10/23 03:12:03;;;;;;;8.02;1.73;;;6.90;99.90;;;;;;5006112;28;20316;-70
2021/10/23 03:14:30;;;;;;;15.25;3.60;;;6.80;99.90;;;;;;5013586;28;20598;-69
2021/10/23 03:16:57;;;;;;;10.07;2.65;;;6.90;99.90;;;;;;5011224;28;20208;-69
2021/10/23 03:19:28;;;;;;;14.43;3.08;;;6.90;99.90;;;;;;5016751;28;20662;-71
2021/10/23 03:21:55;;;;;;;3.20;1.35;;;6.90;99.90;;;;;;5006248;28;20223;-72
2021/10/23 03:24:22;;;;;;;12.85;2.10;;;6.90;99.90;;;;;;5006178;28;20213;-69
2021/10/23 03:26:50;;;;;;;4.30;2.25;;;6.90;99.90;;;;;;5017580;28;20520;-72
2021/10/23 03:29:17;;;;;;;9.23;2.42;;;6.90;99.90;;;;;;5019466;28;20217;-71
2021/10/23 03:31:45;;;;;;;10.20;3.35;;;6.90;99.90;;;;;;5013539;28;20226;-70
2021/10/23 03:34:13;;;;;;;9.63;3.05;;;6.80;99.90;;;;;;5015292;28;20207;-71
2021/10/23 03:36:41;;;;;;;16.48;2.70;;;6.80;99.90;;;;;;5020670;28;20559;-72
2021/10/23 03:39:09;;;;;;;6.50;2.17;;;6.70;99.90;;;;;;5013185;28;20209;-72
2021/10/23 03:41:37;;;;;;;9.95;2.42;;;6.70;99.90;;;;;;5015874;28;20201;-72
2021/10/23 03:44:06;;;;;;;4.80;1.92;;;6.80;99.90;;;;;;5008961;28;20214;-71
2021/10/23 03:46:33;;;;;;;7.47;2.22;;;6.80;99.90;;;;;;5006774;28;20199;-71
2021/10/23 03:49:00;;;;;;;7.97;2.60;;;6.80;99.90;;;;;;5013051;28;20202;-72
2021/10/23 03:51:27;;;;;;;8.02;2.03;;;6.80;99.90;;;;;;5020917;28;20198;-71
2021/10/23 03:53:56;;;;;;;8.68;2.40;;;6.80;99.90;;;;;;5017684;28;20208;-72
2021/10/23 03:56:23;;;;;;;9.05;2.55;;;6.70;99.90;;;;;;5013877;28;20242;-71
2021/10/23 03:58:50;;;;;;;4.55;2.13;;;6.70;99.90;;;;;;5013225;28;20252;-71
2021/10/23 04:01:17;;;;;;;6.80;1.88;;;6.70;99.90;;;;;;5003260;28;20203;-71
2021/10/23 04:03:45;;;;;;;16.55;3.08;;;6.70;99.90;;;;;;5005337;28;20711;-70
2021/10/23 04:06:13;;;;;;;7.00;2.15;;;6.70;99.90;;;;;;5013532;28;20208;-70
2021/10/23 04:08:41;;;;;;;6.25;2.28;;;6.70;99.90;;;;;;5003765;28;20699;-70
2021/10/23 04:11:09;;;;;;;7.22;2.70;;;6.70;99.90;;;;;;5014865;28;20267;-70
2021/10/23 04:13:37;;;;;;;6.05;1.63;;;6.70;99.90;;;;;;5016714;28;20242;-71
2021/10/23 04:16:04;;;;;;;12.63;4.45;;;6.60;99.90;;;;;;5014285;28;20220;-69
2021/10/23 04:18:32;;;;;;;8.13;1.90;;;6.70;99.90;;;;;;5012585;28;20242;-71
2021/10/23 04:20:59;;;;;;;11.70;2.70;;;6.70;99.90;;;;;;5007577;28;20673;-70
2021/10/23 04:23:26;;;;;;;6.35;1.80;;;6.70;99.90;;;;;;5012071;28;20231;-70
2021/10/23 04:25:53;;;;;;;6.28;1.67;;;6.70;99.90;;;;;;5010561;28;20202;-69
2021/10/23 04:28:22;;;;;;;10.65;2.63;;;6.80;99.90;;;;;;5013267;28;20660;-71
2021/10/23 04:30:49;;;;;;;11.68;2.00;;;6.80;99.90;;;;;;5019411;28;20205;-72
2021/10/23 04:33:17;;;;;;;10.27;2.05;;;6.80;99.90;;;;;;5011750;28;20290;-70
2021/10/23 04:35:46;;;;;;;10.90;2.78;;;6.80;99.90;;;;;;5012770;28;20719;-72
2021/10/23 04:38:13;;;;;;;13.52;2.80;;;6.80;99.90;;;;;;5018514;28;20211;-69
2021/10/23 04:40:40;;;;;;;13.00;2.80;;;6.80;99.90;;;;;;5015554;28;20207;-72
2021/10/23 04:43:07;;;;;;;7.97;2.40;;;6.80;99.90;;;;;;5013123;28;20312;-71
2021/10/23 04:45:39;;;;;;;11.68;1.90;;;6.80;99.90;;;;;;5011436;28;20201;-69
2021/10/23 04:48:06;;;;;;;5.90;2.20;;;6.80;99.90;;;;;;5012455;28;20198;-69
2021/10/23 04:50:33;;;;;;;14.13;2.55;;;6.80;99.90;;;;;;5004945;28;20291;-70
2021/10/23 04:53:01;;;;;;;6.10;1.60;;;6.80;99.90;;;;;;5014228;28;20226;-69
2021/10/23 04:55:28;;;;;;;4.93;1.65;;;6.90;99.90;;;;;;5010781;28;20238;-69
2021/10/23 04:57:57;;;;;;;8.60;2.67;;;6.90;99.90;;;;;;5013040;28;20209;-70
2021/10/23 05:00:25;;;;;;;11.80;2.88;;;6.80;99.90;;;;;;5016507;28;20671;-72
2021/10/23 05:02:53;;;;;;;8.32;1.73;;;6.90;99.90;;;;;;5012748;28;20233;-71
2021/10/23 05:05:21;;;;;;;9.90;2.58;;;6.90;99.90;;;;;;5020510;28;20657;-71
2021/10/23 05:07:49;;;;;;;11.30;2.50;;;6.80;99.90;;;;;;5012032;28;20204;-73
2021/10/23 05:10:16;;;;;;;11.38;2.20;;;6.80;99.90;;;;;;5012063;28;20200;-72
2021/10/23 05:12:46;;;;;;;10.77;2.35;;;6.80;99.90;;;;;;5008805;28;20220;-70
2021/10/23 05:15:13;;;;;;;6.00;2.08;;;6.80;99.90;;;;;;5003968;28;20222;-71
2021/10/23 05:17:41;;;;;;;13.10;1.88;;;6.80;99.90;;;;;;5010230;28;20203;-74
2021/10/23 05:20:11;;;;;;;6.30;2.63;;;6.80;99.90;;;;;;5002424;28;20206;-74
2021/10/23 05:22:38;;;;;;;11.90;1.95;;;6.70;99.90;;;;;;5011793;28;20224;-72
2021/10/23 05:25:07;;;;;;;11.60;2.63;;;6.70;99.90;;;;;;5018562;28;20213;-71
2021/10/23 05:27:35;;;;;;;14.02;2.63;;;6.70;99.90;;;;;;5005551;28;20209;-72
2021/10/23 05:30:02;;;;;;;9.55;2.92;;;6.80;99.90;;;;;;5006186;28;20265;-71
2021/10/23 05:32:30;;;;;;;13.15;2.00;;;6.70;99.90;;;;;;5012463;28;20284;-71
2021/10/23 05:34:57;;;;;;;8.05;3.10;;;6.70;99.90;;;;;;5005358;28;20201;-71
2021/10/23 05:37:29;;;;;;;6.38;1.65;;;6.70;99.90;;;;;;5016095;28;20212;-74
2021/10/23 05:39:56;;;;;;;8.52;2.50;;;6.70;99.90;;;;;;5013004;28;20652;-72
2021/10/23 05:42:24;;;;;;;11.90;2.45;;;6.70;99.90;;;;;;5014691;28;20242;-73
2021/10/23 05:44:52;;;;;;;7.90;2.00;;;6.70;99.90;;;;;;5015305;28;20211;-72
2021/10/23 05:47:19;;;;;;;11.68;2.85;;;6.60;99.90;;;;;;5014522;28;20201;-71
2021/10/23 05:49:46;;;;;;;10.85;3.40;;;6.60;99.90;;;;;;5008797;28;20254;-71
2021/10/23 05:52:14;;;;;;;8.57;2.00;;;6.60;99.90;;;;;;5012718;28;20713;-71
2021/10/23 05:54:42;;;;;;;10.05;2.05;;;6.60;99.90;;;;;;5015229;28;20210;-69
2021/10/23 05:57:11;;;;;;;11.93;1.95;;;6.60;99.90;;;;;;5008255;28;20221;-71
2021/10/23 05:59:41;;;;;;;3.60;2.13;;;6.60;99.90;;;;;;5015742;28;20200;-71
2021/10/23 06:02:23;;;;;;;6.22;3.15;;;6.60;99.90;;;;;;5015351;28;20316;-70
2021/10/23 06:04:50;;;;;;;5.80;2.17;;;6.70;99.90;;;;;;4993698;28;20214;-71
2021/10/23 06:07:20;;;;;;;7.22;2.20;;;6.70;99.90;;;;;;5011379;28;20283;-70
2021/10/23 06:09:49;;;;;;;13.32;2.20;;;6.70;99.90;;;;;;5017298;28;20216;-73
2021/10/23 06:12:17;;;;;;;14.52;2.53;;;6.70;99.90;;;;;;5010301;28;20609;-70
2021/10/23 06:14:47;;;;;;;6.68;2.92;;;6.80;99.90;;;;;;5014951;28;20217;-71
2021/10/23 06:17:14;;;;;;;6.38;1.80;;;6.80;99.90;;;;;;5015149;28;20230;-70
2021/10/23 06:19:42;;;;;;;8.85;2.75;;;6.90;99.90;;;;;;5010669;28;20196;-70
2021/10/23 06:22:09;;;;;;;14.95;2.83;;;7.00;99.90;;;;;;5014616;28;20223;-70
2021/10/23 06:24:36;;;;;;;10.90;3.35;;;7.10;99.90;;;;;;5014175;28;20201;-71
2021/10/23 06:27:05;;;;;;;9.82;2.50;;;7.10;99.90;;;;;;5013916;28;20615;-70
2021/10/23 06:29:33;;;;;;;6.32;2.15;;;7.20;99.90;;;;;;5013302;28;20209;-69
2021/10/23 06:32:00;;;;;;;6.47;2.30;;;7.30;99.90;;;;;;5010503;28;20294;-72
2021/10/23 06:34:28;;;;;;;7.68;2.58;;;7.40;99.90;;;;;;5012844;28;20204;-70
2021/10/23 06:36:55;;;;;;;10.30;2.10;;;7.50;99.90;;;;;;5010490;28;20285;-71
2021/10/23 06:39:23;;;;;;;5.90;2.53;;;7.50;99.90;;;;;;5010213;28;20284;-71
2021/10/23 06:41:50;;;;;;;4.28;1.80;;;7.60;99.90;;;;;;5014001;28;20227;-70
2021/10/23 06:44:18;;;;;;;8.73;3.53;;;7.60;99.90;;;;;;5013678;28;20223;-70
2021/10/23 06:46:46;;;;;;;9.38;2.42;;;7.60;99.90;;;;;;5012937;28;20211;-71
2021/10/23 06:49:13;;;;;;;8.25;3.13;;;7.70;99.90;;;;;;5009801;28;20236;-72
2021/10/23 06:51:40;;;;;;;8.68;2.97;;;7.70;99.90;;;;;;5012892;28;20204;-70
2021/10/23 06:54:07;;;;;;;7.07;2.10;;;7.80;99.90;;;;;;5006883;28;20659;-72
2021/10/23 06:56:35;;;;;;;10.77;2.10;;;7.80;99.90;;;;;;5012554;28;20211;-71
2021/10/23 06:59:02;;;;;;;11.25;2.58;;;7.90;99.90;;;;;;5007478;28;20287;-72
2021/10/23 07:01:30;;;;;;;14.68;2.17;;;8.00;99.90;;;;;;5003726;28;20208;-72
2021/10/23 07:03:58;;;;;;;11.57;2.95;;;8.00;99.90;;;;;;5006308;28;20208;-73
2021/10/23 07:06:26;;;;;;;8.18;2.15;;;8.30;99.90;;;;;;5009939;28;20197;-71
2021/10/23 07:08:53;;;;;;;5.13;1.88;;;8.80;99.90;;;;;;5004100;28;20205;-73
2021/10/23 07:11:20;;;;;;;7.57;2.97;;;9.80;99.90;;;;;;5010006;28;20207;-73
2021/10/23 07:13:47;;;;;;;5.63;2.35;;;10.60;99.90;;;;;;5010219;28;20226;-74
2021/10/23 07:16:14;;;;;;;3.60;1.40;;;11.40;99.90;;;;;;5006678;28;20226;-74
2021/10/23 07:18:45;;;;;;;7.97;1.65;;;12.00;99.90;;;;;;5015101;28;20202;-75
2021/10/23 07:21:12;;;;;;;3.60;1.70;;;11.90;99.90;;;;;;5007004;28;20199;-73
2021/10/23 07:23:39;;;;;;;4.03;1.48;;;11.30;99.90;;;;;;5009676;28;20222;-71
2021/10/23 07:26:07;;;;;;;8.57;1.98;;;10.80;99.90;;;;;;5010601;28;20566;-73
2021/10/23 07:28:34;;;;;;;10.00;2.10;;;10.40;99.90;;;;;;5010194;28;20193;-73
2021/10/23 07:31:01;;;;;;;9.23;3.88;;;10.20;99.90;;;;;;5010599;28;20210;-71
2021/10/23 07:33:28;;;;;;;9.18;1.98;;;10.40;99.90;;;;;;5019300;28;21067;-71
2021/10/23 07:35:57;;;;;;;5.32;2.15;;;10.70;99.90;;;;;;5015938;28;20232;-71
2021/10/23 07:38:24;;;;;;;6.55;2.03;;;11.10;99.90;;;;;;5012983;28;20207;-74
2021/10/23 07:40:52;;;;;;;7.97;2.05;;;11.40;99.90;;;;;;5004773;28;20767;-74
2021/10/23 07:43:20;;;;;;;2.90;1.55;;;12.00;99.90;;;;;;5012381;28;20255;-70
2021/10/23 07:45:49;;;;;;;11.30;3.65;;;12.80;99.90;;;;;;5014262;28;20204;-73
2021/10/23 07:48:17;;;;;;;11.30;2.85;;;13.80;99.90;;;;;;5012223;28;20241;-74
2021/10/23 07:50:46;;;;;;;2.60;1.70;;;14.70;99.90;;;;;;5012809;28;20199;-74
2021/10/23 07:53:15;;;;;;;10.90;2.33;;;15.10;99.90;;;;;;5021979;28;20224;-74
2021/10/23 07:55:43;;;;;;;4.70;1.30;;;15.80;99.90;;;;;;5021749;28;20465;-73
2021/10/23 07:58:11;;;;;;;11.20;2.90;;;16.30;98.50;;;;;;5025939;28;20455;-73
2021/10/23 08:00:39;;;;;;;11.03;3.47;;;16.60;96.50;;;;;;5015818;28;20442;-73
2021/10/23 08:03:07;;;;;;;6.37;2.23;;;17.10;95.40;;;;;;5011210;28;20475;-73
2021/10/23 08:05:36;;;;;;;4.93;2.17;;;17.60;95.00;;;;;;5019141;28;20450;-76
2021/10/23 08:08:04;;;;;;;9.60;2.80;;;17.90;93.70;;;;;;5011805;28;20447;-71
2021/10/23 08:10:34;;;;;;;10.33;2.53;;;17.60;94.50;;;;;;5020255;28;20545;-73
2021/10/23 08:13:04;;;;;;;4.10;1.37;;;17.30;93.50;;;;;;5003199;28;20516;-71
2021/10/23 08:15:32;;;;;;;6.17;1.93;;;17.30;94.40;;;;;;5007899;28;20452;-71
2021/10/23 08:18:01;;;;;;;5.87;1.73;;;17.60;93.60;;;;;;5011951;28;20499;-71
2021/10/23 08:20:29;;;;;;;14.10;2.57;;;17.70;93.20;;;;;;5006684;28;20448;-73
2021/10/23 08:22:56;;;;;;;9.07;1.80;;;17.30;93.40;;;;;;5006323;28;20919;-72
2021/10/23 08:25:24;;;;;;;4.60;1.60;;;16.40;94.70;;;;;;5000403;28;20448;-72
2021/10/23 08:27:52;;;;;;;8.07;2.78;;;15.70;97.30;;;;;;5007780;28;20443;-73
2021/10/23 08:30:21;;;;;;;8.98;2.50;;;15.50;98.00;;;;;;5014187;28;20211;-75
2021/10/23 08:32:49;;;;;;;5.93;2.47;;;14.90;99.90;;;;;;5022165;28;20224;-74
2021/10/23 08:35:17;;;;;;;5.25;2.10;;;14.60;99.90;;;;;;5010974;28;20205;-73
2021/10/23 08:37:46;;;;;;;9.52;2.17;;;14.10;99.90;;;;;;5015057;28;20224;-80
2021/10/23 08:40:14;;;;;;;9.20;2.00;;;13.70;99.90;;;;;;5016473;28;20207;-76
2021/10/23 08:42:43;;;;;;;6.63;2.13;;;13.50;99.90;;;;;;5023124;28;20226;-78
2021/10/23 08:45:13;;;;;;;6.05;1.70;;;13.30;99.90;;;;;;5017570;28;20294;-77
2021/10/23 08:47:42;;;;;;;4.72;1.70;;;13.10;99.90;;;;;;5021583;28;20282;-75
2021/10/23 08:50:19;;;;;;;9.25;3.47;;;13.30;99.90;;;;;;5022837;28;20200;-77
2021/10/23 08:52:47;;;;;;;12.90;1.90;;;13.40;99.90;;;;;;5018100;28;20318;-76
2021/10/23 08:55:17;;;;;;;9.00;2.08;;;13.30;99.90;;;;;;5020437;28;20223;-77
2021/10/23 08:57:45;;;;;;;4.63;2.22;;;13.30;99.90;;;;;;5010212;28;20236;-77
2021/10/23 09:00:15;;;;;;;3.83;2.33;;;14.00;99.90;;;;;;5008333;28;20209;-77
2021/10/23 09:02:42;;;;;;;6.15;2.17;;;14.30;99.90;;;;;;5012244;28;20715;-77
2021/10/23 09:05:11;;;;;;;5.18;1.73;;;14.10;99.90;;;;;;5004603;28;20308;-77
2021/10/23 09:07:45;;;;;;;7.53;2.05;;;13.70;99.90;;;;;;5018016;28;20204;-76
2021/10/23 09:10:13;;;;;;;7.18;1.70;;;13.70;99.90;;;;;;5010826;28;20216;-75
2021/10/23 09:12:40;;;;;;;4.97;2.00;;;13.50;99.90;;;;;;5017009;28;20235;-78
2021/10/23 09:15:15;;;;;;;6.57;1.92;;;13.40;99.90;;;;;;5011151;28;20202;-75
2021/10/23 09:17:49;;;;;;;6.60;2.42;;;13.80;99.90;;;;;;5011124;28;20700;-74
2021/10/23 09:20:18;;;;;;;5.05;2.30;;;15.10;99.90;;;;;;4998015;28;20201;-73
2021/10/23 09:22:47;;;;;;;4.88;1.73;;;15.70;99.90;;;;;;5013849;28;20319;-75
2021/10/23 09:25:20;;;;;;;6.25;2.30;;;15.80;99.90;;;;;;5010217;28;20644;-75
2021/10/23 09:27:53;;;;;;;12.30;2.50;;;15.50;99.90;;;;;;5010775;28;20212;-77
2021/10/23 09:30:26;;;;;;;6.28;2.47;;;15.10;99.90;;;;;;5010384;28;20193;-72
2021/10/23 09:32:55;;;;;;;5.68;1.52;;;14.70;99.90;;;;;;5013250;28;20256;-74
2021/10/23 09:35:23;;;;;;;5.15;1.90;;;14.20;99.90;;;;;;5004006;28;20212;-73
2021/10/23 09:37:54;;;;;;;10.27;1.70;;;13.70;99.90;;;;;;5007604;28;20586;-73
2021/10/23 09:40:23;;;;;;;5.13;1.95;;;13.50;99.90;;;;;;5012245;28;20207;-77
2021/10/23 09:43:09;;;;;;;5.32;1.60;;;13.30;99.90;;;;;;5015996;28;20287;-72
2021/10/23 09:45:39;;;;;;;8.30;2.72;;;13.10;99.90;;;;;;5017758;28;20240;-75
2021/10/23 09:48:09;;;;;;;9.43;2.72;;;13.00;99.90;;;;;;5018638;28;20218;-70
2021/10/23 09:50:37;;;;;;;6.32;1.45;;;13.10;99.90;;;;;;5018323;28;20298;-73
2021/10/23 09:53:08;;;;;;;3.63;1.80;;;13.50;99.90;;;;;;5014513;28;20235;-73
2021/10/23 09:55:37;;;;;;;4.82;1.90;;;14.20;99.90;;;;;;5011530;28;20222;-76
2021/10/23 09:58:23;;;;;;;9.83;1.90;;;15.20;99.90;;;;;;5013639;28;20294;-77
2021/10/23 10:00:53;;;;;;;5.13;1.43;;;16.40;99.90;;;;;;5015060;28;20531;-75
2021/10/23 10:03:21;;;;;;;8.03;2.07;;;17.60;97.80;;;;;;5018451;28;20470;-76
2021/10/23 10:05:53;;;;;;;5.93;1.60;;;18.60;95.80;;;;;;5008677;28;20560;-75
2021/10/23 10:08:20;;;;;;;8.73;1.83;;;18.50;94.30;;;;;;5023577;28;20938;-73
2021/10/23 10:10:49;;;;;;;10.70;3.60;;;17.60;94.00;;;;;;5009782;28;20515;-74
2021/10/23 10:13:19;;;;;;;10.40;2.00;;;17.20;96.00;;;;;;5008872;28;20501;-74
2021/10/23 10:15:47;;;;;;;5.57;2.97;;;16.60;96.30;;;;;;5012923;28;20212;-76
2021/10/23 10:18:17;;;;;;;5.13;2.22;;;16.20;98.50;;;;;;5001167;28;20224;-75
2021/10/23 10:20:47;;;;;;;9.10;1.70;;;15.90;99.00;;;;;;5016345;28;20263;-72
2021/10/23 10:23:17;;;;;;;5.97;2.22;;;15.50;99.90;;;;;;5018373;28;20224;-74
2021/10/23 10:25:45;;;;;;;2.47;1.67;;;15.30;99.90;;;;;;5011498;28;20273;-73
2021/10/23 10:28:14;;;;;;;7.30;2.70;;;15.10;99.90;;;;;;5011098;28;20810;-73
2021/10/23 10:30:45;;;;;;;6.20;1.65;;;15.00;99.90;;;;;;5007809;28;20290;-75
2021/10/23 10:33:28;;;;;;;8.48;2.63;;;14.80;99.90;;;;;;5015202;28;20229;-70
2021/10/23 10:36:15;;;;;;;11.05;2.90;;;14.80;99.90;;;;;;4992329;28;20209;-70
2021/10/23 10:38:55;;;;;;;8.50;3.30;;;14.80;99.90;;;;;;4991452;28;20233;-72
2021/10/23 10:44:15;;;;;;;10.07;2.13;;;14.70;99.90;;;;;;5005679;28;20348;-72
2021/10/23 10:47:07;;;;;;;8.25;2.30;;;14.50;99.90;;;;;;5013072;28;20192;-70
2021/10/23 10:49:53;;;;;;;7.13;1.70;;;14.60;99.90;;;;;;5006638;28;20206;-72
2021/10/23 10:52:52;;;;;;;7.10;2.00;;;14.80;99.90;;;;;;5008613;28;20340;-74
2021/10/23 10:55:20;;;;;;;7.07;2.10;;;15.20;99.90;;;;;;5001406;28;20209;-73
2021/10/23 10:58:02;;;;;;;7.40;2.58;;;15.00;99.90;;;;;;5010754;28;20220;-71
2021/10/23 11:01:09;;;;;;;11.00;2.35;;;14.80;99.90;;;;;;5007349;28;20197;-74
2021/10/23 11:03:39;;;;;;;11.23;3.15;;;14.60;99.90;;;;;;5003290;28;20220;-73
2021/10/23 11:06:45;;;;;;;5.95;1.80;;;14.50;99.90;;;;;;5011060;28;20252;-71
2021/10/23 11:09:45;;;;;;;7.50;2.03;;;14.50;99.90;;;;;;5004145;28;20205;-75
2021/10/23 11:12:20;;;;;;;9.55;2.92;;;14.70;99.90;;;;;;5015831;28;20524;-71
2021/10/23 11:14:47;;;;;;;7.38;1.55;;;14.80;99.90;;;;;;5009271;28;20562;-74
2021/10/23 11:17:19;;;;;;;5.38;1.50;;;14.60;99.90;;;;;;5009388;28;20236;-73
2021/10/23 11:19:50;;;;;;;10.80;2.50;;;14.50;99.90;;;;;;5020990;28;20204;-72
2021/10/23 11:22:18;;;;;;;6.43;1.85;;;14.60;99.90;;;;;;5018194;28;20252;-71
2021/10/23 11:24:49;;;;;;;4.85;1.42;;;14.80;99.90;;;;;;5014722;28;20219;-71
2021/10/23 11:27:31;;;;;;;9.32;1.95;;;14.90;99.90;;;;;;5008308;28;20193;-73
2021/10/23 11:30:13;;;;;;;6.57;1.95;;;15.00;99.90;;;;;;4992579;28;20213;-73
2021/10/23 11:32:46;;;;;;;6.45;2.38;;;15.20;99.90;;;;;;5010890;28;20222;-74
2021/10/23 11:35:14;;;;;;;4.70;2.30;;;15.50;99.90;;;;;;5011081;28;20217;-72
2021/10/23 11:37:42;;;;;;;8.20;1.75;;;15.60;99.90;;;;;;5023342;28;20324;-71
2021/10/23 11:40:12;;;;;;;7.55;1.70;;;15.80;99.90;;;;;;5009719;28;20207;-73
2021/10/23 11:42:46;;;;;;;5.70;2.05;;;15.80;99.10;;;;;;5010711;28;20235;-73
2021/10/23 11:45:18;;;;;;;9.77;2.50;;;15.40;99.10;;;;;;5001235;28;20207;-74
2021/10/23 11:47:45;;;;;;;4.22;1.77;;;15.10;99.60;;;;;;5007006;28;20257;-73
2021/10/23 11:50:22;;;;;;;5.20;1.45;;;15.10;99.90;;;;;;5004614;28;20229;-71
2021/10/23 11:52:50;;;;;;;3.72;1.50;;;15.10;99.80;;;;;;5009750;28;20356;-73
2021/10/23 11:55:35;;;;;;;7.03;1.48;;;14.80;99.90;;;;;;5007141;28;20278;-74
2021/10/23 11:58:04;;;;;;;8.93;2.35;;;14.90;99.90;;;;;;5006858;28;20289;-73
2021/10/23 12:00:34;;;;;;;3.85;1.42;;;15.10;99.90;;;;;;5010931;28;20211;-74
2021/10/23 12:03:06;;;;;;;4.43;1.80;;;15.30;99.90;;;;;;5006523;28;20249;-74
2021/10/23 12:05:44;;;;;;;3.17;1.67;;;15.30;99.90;;;;;;4999256;28;20206;-73
2021/10/23 12:08:30;;;;;;;3.33;1.42;;;15.30;99.90;;;;;;5012891;28;20721;-70
2021/10/23 12:11:20;;;;;;;4.05;1.27;;;15.30;99.60;;;;;;5007732;28;20227;-72
2021/10/23 12:14:05;;;;;;;6.13;1.60;;;15.10;99.50;;;;;;5005762;28;20205;-69
2021/10/23 12:16:41;;;;;;;12.32;1.77;;;15.20;99.90;;;;;;5004938;28;20198;-71
2021/10/23 12:19:12;;;;;;;3.60;1.42;;;14.70;99.90;;;;;;5012253;28;20253;-71
2021/10/23 12:21:45;;;;;;;7.20;1.30;;;14.40;99.90;;;;;;5001953;28;20202;-71
2021/10/23 12:24:16;;;;;;;6.28;2.13;;;14.30;99.90;;;;;;5008539;28;20223;-71
2021/10/23 12:27:00;;;;;;;8.63;2.22;;;14.30;99.90;;;;;;5018789;28;20200;-69
2021/10/23 12:29:34;;;;;;;4.95;1.65;;;14.50;99.90;;;;;;5013143;28;20208;-69
2021/10/23 12:32:05;;;;;;;5.22;2.20;;;14.60;99.90;;;;;;4998718;28;20227;-73
2021/10/23 12:35:02;;;;;;;4.88;1.83;;;14.70;99.90;;;;;;5008740;28;20295;-68
2021/10/23 12:37:45;;;;;;;8.23;2.70;;;14.60;99.90;;;;;;5012161;28;20249;-69
2021/10/23 12:40:21;;;;;;;5.15;2.03;;;14.50;99.90;;;;;;5010152;28;20216;-70
2021/10/23 12:43:14;;;;;;;7.85;1.77;;;14.30;99.90;;;;;;4995971;28;20240;-68
2021/10/23 12:45:46;;;;;;;8.60;2.33;;;14.20;99.90;;;;;;5017879;28;20209;-67
2021/10/23 12:48:15;;;;;;;6.63;2.47;;;14.20;99.90;;;;;;5006057;28;20619;-68
2021/10/23 12:50:46;;;;;;;9.48;3.35;;;14.20;99.90;;;;;;5008972;28;20202;-69
2021/10/23 12:53:14;;;;;;;6.28;3.55;;;14.30;99.90;;;;;;5000959;28;20300;-69
2021/10/23 12:55:42;;;;;;;7.72;2.42;;;14.30;99.90;;;;;;5010519;28;20252;-67
2021/10/23 12:58:10;;;;;;;5.43;2.78;;;14.30;99.90;;;;;;5007823;28;20214;-69
2021/10/23 13:00:41;;;;;;;5.88;2.42;;;14.40;99.90;;;;;;5017441;28;20244;-67
2021/10/23 13:03:08;;;;;;;4.50;1.83;;;14.30;99.90;;;;;;5016653;28;20332;-69
2021/10/23 13:05:36;;;;;;;11.77;3.08;;;14.30;99.90;;;;;;5006135;28;20202;-68
2021/10/23 13:08:03;;;;;;;5.38;2.53;;;14.30;99.90;;;;;;5014404;28;20201;-69